Time,TemperatureF,DewpointF,PressureIn,WindDirection,WindDirectionDegrees,WindSpeedMPH,WindSpeedGustMPH,Humidity,HourlyPrecipIn,Conditions,Clouds,dailyrainin,SolarRadiationWatts/m^2,SoftwareType,DateUTC
2013-01-27 00:01:00,31.0,31.0,-100.00,SW,223,0.0,2.0,99,-99.99,,,0.00,0.000000,,2013-01-27 08:01:00,
2013-01-27 00:11:00,31.0,31.0,-100.00,SW,223,0.0,2.0,99,-99.99,,,0.00,0.000000,,2013-01-27 08:11:00,
2013-01-27 00:41:00,31.0,31.0,-100.00,South,187,2.0,4.0,99,-99.99,,,0.00,0.000000,,2013-01-27 08:41:00,
2013-01-27 00:52:00,31.0,31.0,-100.00,South,187,2.0,4.0,99,-99.99,,,0.00,0.000000,,2013-01-27 08:52:00,
2013-01-27 01:02:00,31.0,31.0,-100.00,South,187,2.0,4.0,99,-99.99,,,0.00,0.000000,,2013-01-27 09:02:00,
2013-01-27 01:11:00,31.0,31.0,-100.00,South,187,2.0,4.0,99,-99.99,,,0.00,0.000000,,2013-01-27 09:11:00,
2013-01-27 01:41:00,31.0,31.0,-100.00,South,186,2.0,4.0,99,-99.99,,,0.00,0.000000,,2013-01-27 09:41:00,
2013-01-27 01:52:00,31.0,31.0,-100.00,South,186,2.0,4.0,99,-99.99,,,0.00,0.000000,,2013-01-27 09:52:00,
2013-01-27 02:01:00,31.0,31.0,-100.00,South,186,2.0,4.0,99,-99.99,,,0.00,0.000000,,2013-01-27 10:01:00,
2013-01-27 02:11:00,31.0,31.0,-100.00,South,186,2.0,4.0,99,-99.99,,,0.00,0.000000,,2013-01-27 10:11:00,
2013-01-27 02:41:00,32.0,31.0,-100.00,SW,229,2.0,4.0,97,-99.99,,,0.00,0.000000,,2013-01-27 10:41:00,
2013-01-27 02:52:00,32.0,31.0,-100.00,SW,229,2.0,4.0,97,-99.99,,,0.00,0.000000,,2013-01-27 10:52:00,
2013-01-27 03:01:00,32.0,31.0,-100.00,SW,229,2.0,4.0,97,-99.99,,,0.00,0.000000,,2013-01-27 11:01:00,
2013-01-27 03:11:00,32.0,31.0,-100.00,SW,229,2.0,4.0,97,-99.99,,,0.00,0.000000,,2013-01-27 11:11:00,
2013-01-27 03:42:00,30.0,30.0,-100.00,North,355,0.0,2.0,97,-99.99,,,0.00,0.000000,,2013-01-27 11:42:00,
2013-01-27 03:52:00,30.0,30.0,-100.00,North,355,0.0,2.0,97,-99.99,,,0.00,0.000000,,2013-01-27 11:52:00,
2013-01-27 04:02:00,30.0,30.0,-100.00,North,355,0.0,2.0,97,-99.99,,,0.00,0.000000,,2013-01-27 12:02:00,
2013-01-27 04:11:00,30.0,30.0,-100.00,North,355,0.0,2.0,97,-99.99,,,0.00,0.000000,,2013-01-27 12:11:00,
2013-01-27 04:32:00,31.0,31.0,-100.00,NNE,14,1.0,4.0,98,-99.99,,,0.00,0.000000,,2013-01-27 12:32:00,
2013-01-27 04:42:00,31.0,31.0,-100.00,NNE,14,1.0,4.0,98,-99.99,,,0.00,0.000000,,2013-01-27 12:42:00,
2013-01-27 04:52:00,31.0,31.0,-100.00,NNE,14,1.0,4.0,98,-99.99,,,0.00,0.000000,,2013-01-27 12:52:00,
2013-01-27 05:02:00,31.0,31.0,-100.00,NNE,14,1.0,4.0,98,-99.99,,,0.00,0.000000,,2013-01-27 13:02:00,
2013-01-27 05:11:00,31.0,31.0,-100.00,NNE,14,1.0,4.0,98,-99.99,,,0.00,0.000000,,2013-01-27 13:11:00,
2013-01-27 05:42:00,32.0,32.0,-100.00,NW,321,1.0,3.0,98,-99.99,,,0.00,0.000000,,2013-01-27 13:42:00,
2013-01-27 05:52:00,32.0,32.0,-100.00,NW,321,1.0,3.0,98,-99.99,,,0.00,0.000000,,2013-01-27 13:52:00,
2013-01-27 06:01:00,32.0,32.0,-100.00,NW,321,1.0,3.0,98,-99.99,,,0.00,0.000000,,2013-01-27 14:01:00,
2013-01-27 06:11:00,32.0,32.0,-100.00,NW,321,1.0,3.0,98,-99.99,,,0.00,0.000000,,2013-01-27 14:11:00,
2013-01-27 06:42:00,34.0,33.0,-100.00,WNW,284,1.0,4.0,97,-99.99,,,0.00,0.000000,,2013-01-27 14:42:00,
2013-01-27 06:52:00,34.0,33.0,-100.00,WNW,284,1.0,4.0,97,-99.99,,,0.00,0.000000,,2013-01-27 14:52:00,
2013-01-27 07:01:00,34.0,33.0,-100.00,WNW,284,1.0,4.0,97,-99.99,,,0.00,0.000000,,2013-01-27 15:01:00,
2013-01-27 07:11:00,34.0,33.0,-100.00,WNW,284,1.0,4.0,97,-99.99,,,0.00,0.000000,,2013-01-27 15:11:00,
2013-01-27 07:42:00,36.0,34.0,-100.00,SW,227,4.0,10.0,90,-99.99,,,0.00,0.120000,,2013-01-27 15:42:00,
2013-01-27 07:52:00,36.0,34.0,-100.00,SW,227,4.0,10.0,90,-99.99,,,0.00,0.120000,,2013-01-27 15:52:00,
2013-01-27 08:02:00,36.0,34.0,-100.00,SW,227,4.0,10.0,90,-99.99,,,0.00,0.120000,,2013-01-27 16:02:00,
2013-01-27 08:11:00,36.0,34.0,-100.00,SW,227,4.0,10.0,90,-99.99,,,0.00,0.120000,,2013-01-27 16:11:00,
2013-01-27 08:32:00,36.0,33.0,-100.00,SSE,166,2.0,7.0,88,-99.99,,,0.00,38.000000,,2013-01-27 16:32:00,
2013-01-27 08:42:00,36.0,33.0,-100.00,SSE,166,2.0,7.0,88,-99.99,,,0.00,38.000000,,2013-01-27 16:42:00,
2013-01-27 08:53:00,36.0,33.0,-100.00,SSE,166,2.0,7.0,88,-99.99,,,0.00,38.000000,,2013-01-27 16:53:00,
2013-01-27 09:01:00,36.0,33.0,-100.00,SSE,166,2.0,7.0,88,-99.99,,,0.00,38.000000,,2013-01-27 17:01:00,
2013-01-27 09:11:00,36.0,33.0,-100.00,SSE,166,2.0,7.0,88,-99.99,,,0.00,38.000000,,2013-01-27 17:11:00,
2013-01-27 09:42:00,39.0,33.0,-100.00,South,189,5.0,10.0,78,-99.99,,,0.00,88.910004,,2013-01-27 17:42:00,
2013-01-27 09:52:00,39.0,33.0,-100.00,South,189,5.0,10.0,78,-99.99,,,0.00,88.910004,,2013-01-27 17:52:00,
2013-01-27 10:02:00,39.0,33.0,-100.00,South,189,5.0,10.0,78,-99.99,,,0.00,88.910004,,2013-01-27 18:02:00,
2013-01-27 10:11:00,39.0,33.0,-100.00,South,189,5.0,10.0,78,-99.99,,,0.00,88.910004,,2013-01-27 18:11:00,
2013-01-27 10:42:00,42.0,34.0,-100.00,ESE,122,2.0,5.0,72,-99.99,,,0.00,314.959991,,2013-01-27 18:42:00,
2013-01-27 10:52:00,42.0,34.0,-100.00,ESE,122,2.0,5.0,72,-99.99,,,0.00,314.959991,,2013-01-27 18:52:00,
2013-01-27 11:01:00,42.0,34.0,-100.00,ESE,122,2.0,5.0,72,-99.99,,,0.00,314.959991,,2013-01-27 19:01:00,
2013-01-27 11:11:00,42.0,34.0,-100.00,ESE,122,2.0,5.0,72,-99.99,,,0.00,314.959991,,2013-01-27 19:11:00,
2013-01-27 11:41:00,41.0,34.0,-100.00,SSE,155,5.0,11.0,74,-99.99,,,0.00,337.619995,,2013-01-27 19:41:00,
2013-01-27 11:52:00,41.0,34.0,-100.00,SSE,155,5.0,11.0,74,-99.99,,,0.00,337.619995,,2013-01-27 19:52:00,
2013-01-27 12:02:00,41.0,34.0,-100.00,SSE,155,5.0,11.0,74,-99.99,,,0.00,337.619995,,2013-01-27 20:02:00,
2013-01-27 12:11:00,41.0,34.0,-100.00,SSE,155,5.0,11.0,74,-99.99,,,0.00,337.619995,,2013-01-27 20:11:00,
2013-01-27 12:42:00,41.0,31.0,-100.00,SSW,196,5.0,14.0,68,-99.99,,,0.00,188.630005,,2013-01-27 20:42:00,
2013-01-27 12:52:00,41.0,31.0,-100.00,SSW,196,5.0,14.0,68,-99.99,,,0.00,188.630005,,2013-01-27 20:52:00,
2013-01-27 13:01:00,41.0,31.0,-100.00,SSW,196,5.0,14.0,68,-99.99,,,0.00,188.630005,,2013-01-27 21:01:00,
2013-01-27 13:11:00,41.0,31.0,-100.00,SSW,196,5.0,14.0,68,-99.99,,,0.00,188.630005,,2013-01-27 21:11:00,
2013-01-27 13:42:00,41.0,29.0,-100.00,SSE,161,3.0,8.0,62,-99.99,,,0.00,178.860001,,2013-01-27 21:42:00,
2013-01-27 13:52:00,41.0,29.0,-100.00,SSE,161,3.0,8.0,62,-99.99,,,0.00,178.860001,,2013-01-27 21:52:00,
2013-01-27 14:01:00,41.0,29.0,-100.00,SSE,161,3.0,8.0,62,-99.99,,,0.00,178.860001,,2013-01-27 22:01:00,
2013-01-27 14:11:00,41.0,29.0,-100.00,SSE,161,3.0,8.0,62,-99.99,,,0.00,178.860001,,2013-01-27 22:11:00,
2013-01-27 15:32:00,40.0,33.0,-100.00,SSW,213,5.0,11.0,77,-99.99,,,0.00,163.059998,,2013-01-27 23:32:00,
2013-01-27 15:41:00,40.0,33.0,-100.00,SSW,213,5.0,11.0,77,-99.99,,,0.00,163.059998,,2013-01-27 23:41:00,
2013-01-27 15:53:00,40.0,33.0,-100.00,SSW,213,5.0,11.0,77,-99.99,,,0.00,163.059998,,2013-01-27 23:53:00,
2013-01-27 16:01:00,40.0,33.0,-100.00,SSW,213,5.0,11.0,77,-99.99,,,0.00,163.059998,,2013-01-28 00:01:00,
2013-01-27 16:11:00,40.0,33.0,-100.00,SSW,213,5.0,11.0,77,-99.99,,,0.00,163.059998,,2013-01-28 00:11:00,
2013-01-27 16:32:00,39.0,34.0,-100.00,SSW,206,6.0,12.0,81,-99.99,,,0.00,44.160000,,2013-01-28 00:32:00,
2013-01-27 16:42:00,39.0,34.0,-100.00,SSW,206,6.0,12.0,81,-99.99,,,0.00,44.160000,,2013-01-28 00:42:00,
2013-01-27 16:52:00,39.0,34.0,-100.00,SSW,206,6.0,12.0,81,-99.99,,,0.00,44.160000,,2013-01-28 00:52:00,
2013-01-27 17:01:00,39.0,34.0,-100.00,SSW,206,6.0,12.0,81,-99.99,,,0.00,44.160000,,2013-01-28 01:01:00,
2013-01-27 17:11:00,39.0,34.0,-100.00,SSW,206,6.0,12.0,81,-99.99,,,0.00,44.160000,,2013-01-28 01:11:00,
2013-01-27 17:42:00,37.0,35.0,-100.00,South,179,3.0,8.0,90,-99.99,,,0.00,1.510000,,2013-01-28 01:42:00,
2013-01-27 17:52:00,37.0,35.0,-100.00,South,179,3.0,8.0,90,-99.99,,,0.00,1.510000,,2013-01-28 01:52:00,
2013-01-27 18:02:00,37.0,35.0,-100.00,South,179,3.0,8.0,90,-99.99,,,0.00,1.510000,,2013-01-28 02:02:00,
2013-01-27 18:11:00,37.0,35.0,-100.00,South,179,3.0,8.0,90,-99.99,,,0.00,1.510000,,2013-01-28 02:11:00,
2013-01-27 18:42:00,37.0,35.0,-100.00,South,186,1.0,4.0,94,-99.99,,,0.00,0.000000,,2013-01-28 02:42:00,
2013-01-27 18:52:00,37.0,35.0,-100.00,South,186,1.0,4.0,94,-99.99,,,0.00,0.000000,,2013-01-28 02:52:00,
2013-01-27 19:02:00,37.0,35.0,-100.00,South,186,1.0,4.0,94,-99.99,,,0.00,0.000000,,2013-01-28 03:02:00,
2013-01-27 19:11:00,37.0,35.0,-100.00,South,186,1.0,4.0,94,-99.99,,,0.00,0.000000,,2013-01-28 03:11:00,
2013-01-27 19:41:00,35.0,34.0,-100.00,North,3,1.0,3.0,96,-99.99,,,0.00,0.000000,,2013-01-28 03:41:00,
2013-01-27 19:53:00,35.0,34.0,-100.00,North,3,1.0,3.0,96,-99.99,,,0.00,0.000000,,2013-01-28 03:53:00,
2013-01-27 20:01:00,35.0,34.0,-100.00,North,3,1.0,3.0,96,-99.99,,,0.00,0.000000,,2013-01-28 04:01:00,
2013-01-27 20:11:00,35.0,34.0,-100.00,North,3,1.0,3.0,96,-99.99,,,0.00,0.000000,,2013-01-28 04:11:00,
2013-01-27 20:41:00,34.0,34.0,-100.00,NNW,346,1.0,4.0,98,-99.99,,,0.00,0.000000,,2013-01-28 04:41:00,
2013-01-27 20:52:00,34.0,34.0,-100.00,NNW,346,1.0,4.0,98,-99.99,,,0.00,0.000000,,2013-01-28 04:52:00,
2013-01-27 21:03:00,34.0,34.0,-100.00,NNW,346,1.0,4.0,98,-99.99,,,0.00,0.000000,,2013-01-28 05:03:00,
2013-01-27 21:11:00,34.0,34.0,-100.00,NNW,346,1.0,4.0,98,-99.99,,,0.00,0.000000,,2013-01-28 05:11:00,
2013-01-27 21:41:00,34.0,34.0,-100.00,NW,318,0.0,2.0,99,-99.99,,,0.00,0.000000,,2013-01-28 05:41:00,
2013-01-27 21:52:00,34.0,34.0,-100.00,NW,318,0.0,2.0,99,-99.99,,,0.00,0.000000,,2013-01-28 05:52:00,
2013-01-27 22:02:00,34.0,34.0,-100.00,NW,318,0.0,2.0,99,-99.99,,,0.00,0.000000,,2013-01-28 06:02:00,
2013-01-27 22:11:00,34.0,34.0,-100.00,NW,318,0.0,2.0,99,-99.99,,,0.00,0.000000,,2013-01-28 06:11:00,
2013-01-27 22:32:00,34.0,34.0,-100.00,NW,315,1.0,3.0,100,-99.99,,,0.00,0.000000,,2013-01-28 06:32:00,
2013-01-27 22:42:00,34.0,34.0,-100.00,NW,315,1.0,3.0,100,-99.99,,,0.00,0.000000,,2013-01-28 06:42:00,
2013-01-27 22:52:00,34.0,34.0,-100.00,NW,315,1.0,3.0,100,-99.99,,,0.00,0.000000,,2013-01-28 06:52:00,
2013-01-27 23:02:00,34.0,34.0,-100.00,NW,315,1.0,3.0,100,-99.99,,,0.00,0.000000,,2013-01-28 07:02:00,
2013-01-27 23:11:00,34.0,34.0,-100.00,NW,315,1.0,3.0,100,-99.99,,,0.00,0.000000,,2013-01-28 07:11:00,
2013-01-27 23:41:00,34.0,34.0,-100.00,NNW,344,2.0,7.0,100,-99.99,,,0.00,0.000000,,2013-01-28 07:41:00,
2013-01-27 23:52:00,34.0,34.0,-100.00,NNW,344,2.0,7.0,100,-99.99,,,0.00,0.000000,,2013-01-28 07:52:00,